Terminal Aerodrome Forecast
Issued by NWS Bismarck, ND

Home | Current Version | Previous Version | Graphics & Text | Print | Product List | Glossary On
Versions: 1 2 3 4 5 6 7 8 9 10 11 12 13 14 15 16 17 18 19 20 21 22 23 24
344
FTUS43 KBIS 201313 AAA
TAFISN
TAF AMD
KISN 201313Z 2013/2112 20005KT P6SM SCT005 BKN120
     FM201600 24009KT P6SM SCT060
     FM201800 25009KT P6SM SKC
     FM210300 17004KT P6SM BKN060
     FM210900 20005KT P6SM BKN110 WS020/27030KT=

USA.gov is the U.S. government's official web portal to all federal, state and local government web resources and services.